MMPB/PBC METAR and TAF weather

Enter ICAO airport designator
Station Type Date Time Source
MMPB METAR 2020/02/24 01:44 UTC NOAA

MMPB 240144Z 20009KT 9SM SKC 17/01 A3029 RMK HZY


Station Type Date Time Source
MMPB Decoded METAR 2020/02/24 01:44 UTC NOAA

Puebla, Pue., Mexico (MMPB) 19-03N 098-10W
Feb 23, 2020 - 08:44 PM EST / 2020.02.24 0144 UTC
Wind: from the SSW (200 degrees) at 10 MPH (9 KT):0
Visibility: 9 mile(s):0
Sky conditions: clear
Temperature: 62 F (17 C)
Dew Point: 33 F (1 C)
Relative Humidity: 33%
Pressure (altimeter): 30.29 in. Hg (1025 hPa)
ob: MMPB 240144Z 20009KT 9SM SKC 17/01 A3029 RMK HZY
cycle: 1

Station Type Date Time Source
MMPB TAF 2020/02/24 06:20 UTC NOAA

TAF MMPB 240413Z 2406/2506 00000KT P6SM SKC
FM241800 23010KT P6SM SKC
BECMG 2503/2505 26005KT

Example: see airport list